sensor_id;sensor_type;location;lat;lon;timestamp;P1;durP1;ratioP1;P2;durP2;ratioP2
43793;SDS011;29414;44.798;20.366;2022-08-25T00:00:20;15.82;;;14.23;;
43793;SDS011;29414;44.798;20.366;2022-08-25T00:04:21;18.58;;;16.38;;
43793;SDS011;29414;44.798;20.366;2022-08-25T00:08:22;15.85;;;14.35;;
43793;SDS011;29414;44.798;20.366;2022-08-25T00:12:22;17.35;;;15.73;;
43793;SDS011;29414;44.798;20.366;2022-08-25T00:16:23;17.52;;;15.77;;
43793;SDS011;29414;44.798;20.366;2022-08-25T00:20:23;16.73;;;15.15;;
43793;SDS011;29414;44.798;20.366;2022-08-25T00:24:24;14.73;;;13.23;;
43793;SDS011;29414;44.798;20.366;2022-08-25T00:28:24;15.63;;;13.45;;
43793;SDS011;29414;44.798;20.366;2022-08-25T00:32:25;15.93;;;11.88;;
43793;SDS011;29414;44.798;20.366;2022-08-25T00:36:26;20.08;;;18.08;;
43793;SDS011;29414;44.798;20.366;2022-08-25T00:40:28;17.27;;;15.63;;
43793;SDS011;29414;44.798;20.366;2022-08-25T00:44:29;15.30;;;12.73;;
43793;SDS011;29414;44.798;20.366;2022-08-25T00:48:29;15.13;;;13.57;;
43793;SDS011;29414;44.798;20.366;2022-08-25T00:52:31;22.58;;;18.70;;
43793;SDS011;29414;44.798;20.366;2022-08-25T00:56:33;29.38;;;18.80;;
43793;SDS011;29414;44.798;20.366;2022-08-25T01:00:36;29.98;;;18.50;;
43793;SDS011;29414;44.798;20.366;2022-08-25T01:04:36;114.30;;;20.08;;
43793;SDS011;29414;44.798;20.366;2022-08-25T01:08:37;113.07;;;21.52;;
43793;SDS011;29414;44.798;20.366;2022-08-25T01:12:37;178.50;;;25.83;;
43793;SDS011;29414;44.798;20.366;2022-08-25T01:16:39;77.40;;;19.45;;
43793;SDS011;29414;44.798;20.366;2022-08-25T01:20:39;139.63;;;25.30;;
43793;SDS011;29414;44.798;20.366;2022-08-25T01:24:41;44.88;;;18.13;;
43793;SDS011;29414;44.798;20.366;2022-08-25T01:28:44;57.25;;;18.42;;
43793;SDS011;29414;44.798;20.366;2022-08-25T01:33:04;98.18;;;20.48;;
43793;SDS011;29414;44.798;20.366;2022-08-25T01:37:04;56.60;;;16.73;;
43793;SDS011;29414;44.798;20.366;2022-08-25T01:41:05;77.50;;;14.52;;
43793;SDS011;29414;44.798;20.366;2022-08-25T01:45:05;65.07;;;16.05;;
43793;SDS011;29414;44.798;20.366;2022-08-25T01:49:05;192.02;;;20.88;;
43793;SDS011;29414;44.798;20.366;2022-08-25T01:53:08;230.23;;;20.90;;
43793;SDS011;29414;44.798;20.366;2022-08-25T01:57:10;104.57;;;19.17;;
43793;SDS011;29414;44.798;20.366;2022-08-25T02:01:13;71.05;;;19.20;;
43793;SDS011;29414;44.798;20.366;2022-08-25T02:05:14;147.60;;;23.05;;
43793;SDS011;29414;44.798;20.366;2022-08-25T02:09:18;84.88;;;21.10;;
43793;SDS011;29414;44.798;20.366;2022-08-25T02:13:18;253.70;;;25.58;;
43793;SDS011;29414;44.798;20.366;2022-08-25T02:17:19;32.58;;;21.52;;
43793;SDS011;29414;44.798;20.366;2022-08-25T02:21:19;174.82;;;28.02;;
43793;SDS011;29414;44.798;20.366;2022-08-25T02:25:20;397.48;;;34.00;;
43793;SDS011;29414;44.798;20.366;2022-08-25T02:29:20;310.08;;;32.55;;
43793;SDS011;29414;44.798;20.366;2022-08-25T02:33:20;302.35;;;36.42;;
43793;SDS011;29414;44.798;20.366;2022-08-25T02:37:21;107.85;;;30.17;;
43793;SDS011;29414;44.798;20.366;2022-08-25T02:41:22;24.67;;;22.02;;
43793;SDS011;29414;44.798;20.366;2022-08-25T02:45:23;99.57;;;22.58;;
43793;SDS011;29414;44.798;20.366;2022-08-25T02:49:24;152.00;;;28.33;;
43793;SDS011;29414;44.798;20.366;2022-08-25T02:53:24;22.15;;;19.75;;
43793;SDS011;29414;44.798;20.366;2022-08-25T02:57:24;96.25;;;19.90;;
43793;SDS011;29414;44.798;20.366;2022-08-25T03:01:24;74.70;;;21.24;;
43793;SDS011;29414;44.798;20.366;2022-08-25T03:05:25;194.00;;;27.48;;
43793;SDS011;29414;44.798;20.366;2022-08-25T03:09:25;81.60;;;19.92;;
43793;SDS011;29414;44.798;20.366;2022-08-25T03:13:26;116.07;;;21.38;;
43793;SDS011;29414;44.798;20.366;2022-08-25T03:17:26;92.22;;;20.35;;
43793;SDS011;29414;44.798;20.366;2022-08-25T03:21:27;126.15;;;25.08;;
43793;SDS011;29414;44.798;20.366;2022-08-25T03:25:28;236.80;;;33.33;;
43793;SDS011;29414;44.798;20.366;2022-08-25T03:29:47;181.57;;;29.88;;
43793;SDS011;29414;44.798;20.366;2022-08-25T03:33:49;166.10;;;33.67;;
43793;SDS011;29414;44.798;20.366;2022-08-25T03:37:49;258.95;;;39.80;;
43793;SDS011;29414;44.798;20.366;2022-08-25T03:41:50;74.95;;;28.02;;
43793;SDS011;29414;44.798;20.366;2022-08-25T03:45:51;25.98;;;20.30;;
43793;SDS011;29414;44.798;20.366;2022-08-25T03:49:51;25.08;;;22.38;;
43793;SDS011;29414;44.798;20.366;2022-08-25T03:53:52;23.58;;;20.80;;
43793;SDS011;29414;44.798;20.366;2022-08-25T03:57:53;35.10;;;19.55;;
43793;SDS011;29414;44.798;20.366;2022-08-25T04:01:53;34.40;;;24.25;;
43793;SDS011;29414;44.798;20.366;2022-08-25T04:05:53;172.40;;;32.45;;
43793;SDS011;29414;44.798;20.366;2022-08-25T04:09:53;98.75;;;28.85;;
43793;SDS011;29414;44.798;20.366;2022-08-25T04:13:55;131.60;;;28.98;;
43793;SDS011;29414;44.798;20.366;2022-08-25T04:17:56;76.85;;;25.20;;
43793;SDS011;29414;44.798;20.366;2022-08-25T04:21:57;25.02;;;21.98;;
43793;SDS011;29414;44.798;20.366;2022-08-25T04:25:58;32.40;;;21.05;;
43793;SDS011;29414;44.798;20.366;2022-08-25T04:29:58;23.02;;;20.63;;
43793;SDS011;29414;44.798;20.366;2022-08-25T04:34:00;85.28;;;27.25;;
43793;SDS011;29414;44.798;20.366;2022-08-25T04:38:01;38.83;;;23.23;;
43793;SDS011;29414;44.798;20.366;2022-08-25T04:42:01;36.17;;;23.67;;
43793;SDS011;29414;44.798;20.366;2022-08-25T04:46:08;29.42;;;23.23;;
43793;SDS011;29414;44.798;20.366;2022-08-25T04:50:11;33.20;;;22.95;;
43793;SDS011;29414;44.798;20.366;2022-08-25T04:54:12;34.35;;;25.25;;
43793;SDS011;29414;44.798;20.366;2022-08-25T04:58:15;105.72;;;25.73;;
43793;SDS011;29414;44.798;20.366;2022-08-25T05:02:15;169.05;;;32.65;;
43793;SDS011;29414;44.798;20.366;2022-08-25T05:06:15;90.88;;;27.77;;
43793;SDS011;29414;44.798;20.366;2022-08-25T05:10:18;41.13;;;23.88;;
43793;SDS011;29414;44.798;20.366;2022-08-25T05:14:19;120.63;;;31.08;;
43793;SDS011;29414;44.798;20.366;2022-08-25T05:18:22;29.83;;;22.33;;
43793;SDS011;29414;44.798;20.366;2022-08-25T05:22:22;29.00;;;21.10;;
43793;SDS011;29414;44.798;20.366;2022-08-25T05:26:24;56.50;;;29.58;;
43793;SDS011;29414;44.798;20.366;2022-08-25T05:30:24;28.52;;;24.42;;
43793;SDS011;29414;44.798;20.366;2022-08-25T05:34:25;26.88;;;23.15;;
43793;SDS011;29414;44.798;20.366;2022-08-25T05:38:25;30.90;;;24.25;;
43793;SDS011;29414;44.798;20.366;2022-08-25T05:42:25;48.92;;;31.55;;
43793;SDS011;29414;44.798;20.366;2022-08-25T05:46:27;40.67;;;30.17;;
43793;SDS011;29414;44.798;20.366;2022-08-25T05:50:27;47.85;;;33.20;;
43793;SDS011;29414;44.798;20.366;2022-08-25T05:54:27;45.08;;;33.70;;
43793;SDS011;29414;44.798;20.366;2022-08-25T05:58:28;41.72;;;34.13;;
43793;SDS011;29414;44.798;20.366;2022-08-25T06:02:28;41.28;;;34.28;;
43793;SDS011;29414;44.798;20.366;2022-08-25T06:06:43;56.58;;;39.00;;
43793;SDS011;29414;44.798;20.366;2022-08-25T06:10:43;64.55;;;42.67;;
43793;SDS011;29414;44.798;20.366;2022-08-25T06:14:43;59.13;;;40.38;;
43793;SDS011;29414;44.798;20.366;2022-08-25T06:18:43;51.75;;;37.70;;
43793;SDS011;29414;44.798;20.366;2022-08-25T06:22:44;72.47;;;44.50;;
43793;SDS011;29414;44.798;20.366;2022-08-25T06:26:45;59.88;;;42.75;;
43793;SDS011;29414;44.798;20.366;2022-08-25T06:30:45;70.47;;;44.45;;
43793;SDS011;29414;44.798;20.366;2022-08-25T06:34:46;53.20;;;39.83;;
43793;SDS011;29414;44.798;20.366;2022-08-25T06:38:46;52.05;;;38.00;;
43793;SDS011;29414;44.798;20.366;2022-08-25T06:42:47;51.35;;;39.75;;
43793;SDS011;29414;44.798;20.366;2022-08-25T06:46:48;55.95;;;44.13;;
43793;SDS011;29414;44.798;20.366;2022-08-25T06:50:48;52.72;;;43.08;;
43793;SDS011;29414;44.798;20.366;2022-08-25T06:54:48;50.28;;;42.60;;
43793;SDS011;29414;44.798;20.366;2022-08-25T06:58:49;48.53;;;41.60;;
43793;SDS011;29414;44.798;20.366;2022-08-25T07:02:49;52.03;;;44.22;;
43793;SDS011;29414;44.798;20.366;2022-08-25T07:06:49;47.40;;;40.78;;
43793;SDS011;29414;44.798;20.366;2022-08-25T07:10:49;45.15;;;40.35;;
43793;SDS011;29414;44.798;20.366;2022-08-25T07:14:50;50.22;;;43.08;;
43793;SDS011;29414;44.798;20.366;2022-08-25T07:18:50;53.22;;;44.38;;
43793;SDS011;29414;44.798;20.366;2022-08-25T07:22:50;44.88;;;39.55;;
43793;SDS011;29414;44.798;20.366;2022-08-25T07:26:52;39.90;;;35.72;;
43793;SDS011;29414;44.798;20.366;2022-08-25T07:30:52;38.38;;;32.85;;
43793;SDS011;29414;44.798;20.366;2022-08-25T07:34:53;35.88;;;32.17;;
43793;SDS011;29414;44.798;20.366;2022-08-25T07:39:11;34.30;;;30.92;;
43793;SDS011;29414;44.798;20.366;2022-08-25T07:43:12;34.53;;;30.48;;
43793;SDS011;29414;44.798;20.366;2022-08-25T07:47:12;30.92;;;28.00;;
43793;SDS011;29414;44.798;20.366;2022-08-25T07:51:14;30.58;;;27.73;;
43793;SDS011;29414;44.798;20.366;2022-08-25T07:55:16;26.92;;;24.30;;
43793;SDS011;29414;44.798;20.366;2022-08-25T07:59:16;25.38;;;22.85;;
43793;SDS011;29414;44.798;20.366;2022-08-25T08:03:16;23.35;;;21.25;;
43793;SDS011;29414;44.798;20.366;2022-08-25T08:07:17;21.58;;;18.42;;
43793;SDS011;29414;44.798;20.366;2022-08-25T08:11:25;22.38;;;19.90;;
43793;SDS011;29414;44.798;20.366;2022-08-25T08:15:26;20.48;;;18.25;;
43793;SDS011;29414;44.798;20.366;2022-08-25T08:19:27;22.20;;;20.20;;
43793;SDS011;29414;44.798;20.366;2022-08-25T08:23:27;21.00;;;19.02;;
43793;SDS011;29414;44.798;20.366;2022-08-25T08:27:28;16.30;;;14.63;;
43793;SDS011;29414;44.798;20.366;2022-08-25T08:31:29;17.30;;;15.73;;
43793;SDS011;29414;44.798;20.366;2022-08-25T08:35:29;15.15;;;13.65;;
43793;SDS011;29414;44.798;20.366;2022-08-25T08:39:29;16.23;;;14.63;;
43793;SDS011;29414;44.798;20.366;2022-08-25T08:43:30;16.92;;;14.40;;
43793;SDS011;29414;44.798;20.366;2022-08-25T08:47:36;14.55;;;13.45;;
43793;SDS011;29414;44.798;20.366;2022-08-25T08:51:46;14.43;;;13.23;;
43793;SDS011;29414;44.798;20.366;2022-08-25T08:55:51;18.42;;;15.95;;
43793;SDS011;29414;44.798;20.366;2022-08-25T08:59:57;14.32;;;12.85;;
43793;SDS011;29414;44.798;20.366;2022-08-25T09:04:02;13.40;;;12.27;;
43793;SDS011;29414;44.798;20.366;2022-08-25T09:08:05;12.15;;;11.05;;
43793;SDS011;29414;44.798;20.366;2022-08-25T09:12:10;15.63;;;10.25;;
43793;SDS011;29414;44.798;20.366;2022-08-25T09:20:48;10.48;;;9.43;;
43793;SDS011;29414;44.798;20.366;2022-08-25T09:28:52;9.57;;;8.68;;
43793;SDS011;29414;44.798;20.366;2022-08-25T09:32:55;9.70;;;9.00;;
43793;SDS011;29414;44.798;20.366;2022-08-25T09:37:02;11.57;;;8.75;;
43793;SDS011;29414;44.798;20.366;2022-08-25T09:41:03;9.35;;;8.60;;
43793;SDS011;29414;44.798;20.366;2022-08-25T09:45:04;8.68;;;7.78;;
43793;SDS011;29414;44.798;20.366;2022-08-25T09:49:11;8.57;;;7.78;;
43793;SDS011;29414;44.798;20.366;2022-08-25T09:53:12;10.77;;;9.68;;
43793;SDS011;29414;44.798;20.366;2022-08-25T09:57:26;12.00;;;10.90;;
43793;SDS011;29414;44.798;20.366;2022-08-25T10:01:27;10.20;;;9.13;;
43793;SDS011;29414;44.798;20.366;2022-08-25T10:05:28;9.87;;;8.90;;
43793;SDS011;29414;44.798;20.366;2022-08-25T10:09:37;9.18;;;8.45;;
43793;SDS011;29414;44.798;20.366;2022-08-25T10:13:42;10.15;;;9.15;;
43793;SDS011;29414;44.798;20.366;2022-08-25T10:17:42;10.63;;;9.63;;
43793;SDS011;29414;44.798;20.366;2022-08-25T10:21:43;13.38;;;9.27;;
43793;SDS011;29414;44.798;20.366;2022-08-25T10:25:44;10.70;;;9.68;;
43793;SDS011;29414;44.798;20.366;2022-08-25T11:02:36;7.55;;;6.72;;
43793;SDS011;29414;44.798;20.366;2022-08-25T11:06:46;7.28;;;6.55;;
43793;SDS011;29414;44.798;20.366;2022-08-25T11:10:50;6.32;;;5.93;;
43793;SDS011;29414;44.798;20.366;2022-08-25T11:14:53;9.70;;;7.18;;
43793;SDS011;29414;44.798;20.366;2022-08-25T11:19:29;6.95;;;6.25;;
43793;SDS011;29414;44.798;20.366;2022-08-25T11:27:31;8.98;;;6.72;;
43793;SDS011;29414;44.798;20.366;2022-08-25T11:31:36;7.45;;;6.68;;
43793;SDS011;29414;44.798;20.366;2022-08-25T11:56:32;7.78;;;6.35;;
43793;SDS011;29414;44.798;20.366;2022-08-25T12:04:35;6.80;;;5.80;;
43793;SDS011;29414;44.798;20.366;2022-08-25T12:13:04;9.95;;;6.32;;
43793;SDS011;29414;44.798;20.366;2022-08-25T12:17:22;6.60;;;6.00;;
43793;SDS011;29414;44.798;20.366;2022-08-25T12:21:30;8.90;;;6.35;;
43793;SDS011;29414;44.798;20.366;2022-08-25T12:25:31;7.55;;;5.80;;
43793;SDS011;29414;44.798;20.366;2022-08-25T12:33:39;7.38;;;4.80;;
43793;SDS011;29414;44.798;20.366;2022-08-25T12:41:58;6.05;;;5.32;;
43793;SDS011;29414;44.798;20.366;2022-08-25T12:46:44;6.95;;;5.00;;
43793;SDS011;29414;44.798;20.366;2022-08-25T12:58:37;6.60;;;4.93;;
43793;SDS011;29414;44.798;20.366;2022-08-25T13:14:53;13.00;;;5.45;;
43793;SDS011;29414;44.798;20.366;2022-08-25T13:18:55;7.40;;;5.32;;
43793;SDS011;29414;44.798;20.366;2022-08-25T13:22:58;9.90;;;5.45;;
43793;SDS011;29414;44.798;20.366;2022-08-25T13:27:00;8.25;;;5.35;;
43793;SDS011;29414;44.798;20.366;2022-08-25T13:31:22;5.80;;;4.82;;
43793;SDS011;29414;44.798;20.366;2022-08-25T13:35:29;10.18;;;4.80;;
43793;SDS011;29414;44.798;20.366;2022-08-25T13:39:31;8.32;;;4.80;;
43793;SDS011;29414;44.798;20.366;2022-08-25T13:43:33;7.80;;;5.00;;
43793;SDS011;29414;44.798;20.366;2022-08-25T13:47:37;7.03;;;5.00;;
43793;SDS011;29414;44.798;20.366;2022-08-25T13:59:47;8.87;;;5.57;;
43793;SDS011;29414;44.798;20.366;2022-08-25T14:03:48;13.15;;;5.32;;
43793;SDS011;29414;44.798;20.366;2022-08-25T14:07:53;8.55;;;5.07;;
43793;SDS011;29414;44.798;20.366;2022-08-25T14:11:56;10.02;;;5.13;;
43793;SDS011;29414;44.798;20.366;2022-08-25T14:20:27;8.75;;;5.68;;
43793;SDS011;29414;44.798;20.366;2022-08-25T14:24:32;8.55;;;5.88;;
43793;SDS011;29414;44.798;20.366;2022-08-25T14:28:33;6.27;;;4.33;;
43793;SDS011;29414;44.798;20.366;2022-08-25T14:32:33;8.57;;;5.05;;
43793;SDS011;29414;44.798;20.366;2022-08-25T14:36:34;9.27;;;4.72;;
43793;SDS011;29414;44.798;20.366;2022-08-25T14:40:34;5.50;;;3.53;;
43793;SDS011;29414;44.798;20.366;2022-08-25T14:44:34;8.65;;;4.88;;
43793;SDS011;29414;44.798;20.366;2022-08-25T14:48:38;4.75;;;4.25;;
43793;SDS011;29414;44.798;20.366;2022-08-25T14:56:39;15.25;;;5.60;;
43793;SDS011;29414;44.798;20.366;2022-08-25T15:00:41;10.55;;;4.63;;
43793;SDS011;29414;44.798;20.366;2022-08-25T15:04:41;9.35;;;5.20;;
43793;SDS011;29414;44.798;20.366;2022-08-25T15:08:42;11.35;;;4.85;;
43793;SDS011;29414;44.798;20.366;2022-08-25T15:13:01;7.18;;;4.68;;
43793;SDS011;29414;44.798;20.366;2022-08-25T15:17:01;7.35;;;4.68;;
43793;SDS011;29414;44.798;20.366;2022-08-25T15:21:02;11.55;;;4.80;;
43793;SDS011;29414;44.798;20.366;2022-08-25T15:25:03;9.85;;;4.57;;
43793;SDS011;29414;44.798;20.366;2022-08-25T15:29:03;11.93;;;4.25;;
43793;SDS011;29414;44.798;20.366;2022-08-25T15:33:03;5.65;;;4.78;;
43793;SDS011;29414;44.798;20.366;2022-08-25T15:37:08;7.75;;;4.95;;
43793;SDS011;29414;44.798;20.366;2022-08-25T15:41:09;9.15;;;4.82;;
43793;SDS011;29414;44.798;20.366;2022-08-25T15:45:10;18.10;;;5.43;;
43793;SDS011;29414;44.798;20.366;2022-08-25T15:49:10;10.70;;;5.18;;
43793;SDS011;29414;44.798;20.366;2022-08-25T15:53:11;8.82;;;4.65;;
43793;SDS011;29414;44.798;20.366;2022-08-25T15:57:11;7.75;;;4.78;;
43793;SDS011;29414;44.798;20.366;2022-08-25T16:01:12;7.27;;;4.60;;
43793;SDS011;29414;44.798;20.366;2022-08-25T16:05:12;10.23;;;5.35;;
43793;SDS011;29414;44.798;20.366;2022-08-25T16:09:13;9.38;;;5.13;;
43793;SDS011;29414;44.798;20.366;2022-08-25T16:13:14;9.20;;;5.10;;
43793;SDS011;29414;44.798;20.366;2022-08-25T16:17:14;13.20;;;5.93;;
43793;SDS011;29414;44.798;20.366;2022-08-25T16:21:16;8.10;;;5.07;;
43793;SDS011;29414;44.798;20.366;2022-08-25T16:25:18;9.53;;;6.33;;
43793;SDS011;29414;44.798;20.366;2022-08-25T16:29:18;6.15;;;5.20;;
43793;SDS011;29414;44.798;20.366;2022-08-25T16:33:19;10.07;;;6.20;;
43793;SDS011;29414;44.798;20.366;2022-08-25T16:37:19;8.35;;;5.80;;
43793;SDS011;29414;44.798;20.366;2022-08-25T16:41:23;12.05;;;5.97;;
43793;SDS011;29414;44.798;20.366;2022-08-25T16:45:24;7.47;;;5.57;;
43793;SDS011;29414;44.798;20.366;2022-08-25T16:49:25;9.55;;;5.95;;
43793;SDS011;29414;44.798;20.366;2022-08-25T16:53:25;8.05;;;6.32;;
43793;SDS011;29414;44.798;20.366;2022-08-25T16:57:46;8.40;;;5.88;;
43793;SDS011;29414;44.798;20.366;2022-08-25T17:01:47;9.23;;;6.15;;
43793;SDS011;29414;44.798;20.366;2022-08-25T17:05:47;13.77;;;6.32;;
43793;SDS011;29414;44.798;20.366;2022-08-25T17:09:48;8.73;;;5.43;;
43793;SDS011;29414;44.798;20.366;2022-08-25T17:13:49;11.27;;;6.17;;
43793;SDS011;29414;44.798;20.366;2022-08-25T17:17:50;6.05;;;5.38;;
43793;SDS011;29414;44.798;20.366;2022-08-25T17:21:50;11.83;;;7.03;;
43793;SDS011;29414;44.798;20.366;2022-08-25T17:25:52;9.20;;;6.00;;
43793;SDS011;29414;44.798;20.366;2022-08-25T17:29:53;11.18;;;7.13;;
43793;SDS011;29414;44.798;20.366;2022-08-25T17:33:53;10.82;;;6.57;;
43793;SDS011;29414;44.798;20.366;2022-08-25T17:37:54;7.93;;;5.40;;
43793;SDS011;29414;44.798;20.366;2022-08-25T17:41:54;10.63;;;6.35;;
43793;SDS011;29414;44.798;20.366;2022-08-25T17:45:55;10.20;;;6.43;;
43793;SDS011;29414;44.798;20.366;2022-08-25T17:49:58;13.18;;;7.32;;
43793;SDS011;29414;44.798;20.366;2022-08-25T17:53:58;10.63;;;7.55;;
43793;SDS011;29414;44.798;20.366;2022-08-25T17:57:58;9.15;;;7.43;;
43793;SDS011;29414;44.798;20.366;2022-08-25T18:01:59;10.32;;;6.85;;
43793;SDS011;29414;44.798;20.366;2022-08-25T18:05:59;8.23;;;7.18;;
43793;SDS011;29414;44.798;20.366;2022-08-25T18:09:59;8.52;;;7.00;;
43793;SDS011;29414;44.798;20.366;2022-08-25T18:14:00;7.93;;;6.88;;
43793;SDS011;29414;44.798;20.366;2022-08-25T18:18:00;11.60;;;7.95;;
43793;SDS011;29414;44.798;20.366;2022-08-25T18:22:01;13.77;;;7.93;;
43793;SDS011;29414;44.798;20.366;2022-08-25T18:26:08;12.63;;;7.13;;
43793;SDS011;29414;44.798;20.366;2022-08-25T18:30:09;16.13;;;7.40;;
43793;SDS011;29414;44.798;20.366;2022-08-25T18:34:09;13.10;;;7.72;;
43793;SDS011;29414;44.798;20.366;2022-08-25T18:38:10;16.45;;;6.85;;
43793;SDS011;29414;44.798;20.366;2022-08-25T18:42:29;8.15;;;7.30;;
43793;SDS011;29414;44.798;20.366;2022-08-25T18:46:29;10.18;;;8.18;;
43793;SDS011;29414;44.798;20.366;2022-08-25T18:50:32;10.63;;;7.63;;
43793;SDS011;29414;44.798;20.366;2022-08-25T18:54:32;17.80;;;8.65;;
43793;SDS011;29414;44.798;20.366;2022-08-25T18:58:33;9.90;;;7.05;;
43793;SDS011;29414;44.798;20.366;2022-08-25T19:02:33;14.38;;;8.05;;
43793;SDS011;29414;44.798;20.366;2022-08-25T19:06:33;10.60;;;7.95;;
43793;SDS011;29414;44.798;20.366;2022-08-25T19:10:36;13.90;;;8.73;;
43793;SDS011;29414;44.798;20.366;2022-08-25T19:14:37;11.52;;;7.72;;
43793;SDS011;29414;44.798;20.366;2022-08-25T19:18:37;8.30;;;7.45;;
43793;SDS011;29414;44.798;20.366;2022-08-25T19:22:38;9.20;;;7.10;;
43793;SDS011;29414;44.798;20.366;2022-08-25T19:26:38;13.13;;;8.30;;
43793;SDS011;29414;44.798;20.366;2022-08-25T19:30:39;13.43;;;9.05;;
43793;SDS011;29414;44.798;20.366;2022-08-25T19:34:40;12.90;;;7.55;;
43793;SDS011;29414;44.798;20.366;2022-08-25T19:38:41;14.30;;;8.70;;
43793;SDS011;29414;44.798;20.366;2022-08-25T19:42:43;12.25;;;8.05;;
43793;SDS011;29414;44.798;20.366;2022-08-25T19:46:45;14.70;;;9.77;;
43793;SDS011;29414;44.798;20.366;2022-08-25T19:50:46;10.98;;;8.50;;
43793;SDS011;29414;44.798;20.366;2022-08-25T19:54:46;15.82;;;8.23;;
43793;SDS011;29414;44.798;20.366;2022-08-25T19:58:47;10.75;;;8.80;;
43793;SDS011;29414;44.798;20.366;2022-08-25T20:02:47;11.05;;;8.40;;
43793;SDS011;29414;44.798;20.366;2022-08-25T20:06:47;10.98;;;8.35;;
43793;SDS011;29414;44.798;20.366;2022-08-25T20:10:48;14.60;;;8.25;;
43793;SDS011;29414;44.798;20.366;2022-08-25T20:14:49;10.32;;;8.20;;
43793;SDS011;29414;44.798;20.366;2022-08-25T20:18:49;9.82;;;8.85;;
43793;SDS011;29414;44.798;20.366;2022-08-25T20:22:50;10.90;;;8.93;;
43793;SDS011;29414;44.798;20.366;2022-08-25T20:26:51;12.63;;;10.00;;
43793;SDS011;29414;44.798;20.366;2022-08-25T20:30:51;14.93;;;8.75;;
43793;SDS011;29414;44.798;20.366;2022-08-25T20:34:52;11.65;;;9.10;;
43793;SDS011;29414;44.798;20.366;2022-08-25T20:38:52;13.38;;;9.02;;
43793;SDS011;29414;44.798;20.366;2022-08-25T20:42:53;11.95;;;9.73;;
43793;SDS011;29414;44.798;20.366;2022-08-25T20:46:53;12.45;;;9.45;;
43793;SDS011;29414;44.798;20.366;2022-08-25T20:50:56;12.70;;;9.40;;
43793;SDS011;29414;44.798;20.366;2022-08-25T20:54:56;13.48;;;9.25;;
43793;SDS011;29414;44.798;20.366;2022-08-25T20:58:57;12.30;;;8.88;;
43793;SDS011;29414;44.798;20.366;2022-08-25T21:02:57;13.88;;;9.75;;
43793;SDS011;29414;44.798;20.366;2022-08-25T21:06:57;13.10;;;9.73;;
43793;SDS011;29414;44.798;20.366;2022-08-25T21:11:18;12.57;;;9.45;;
43793;SDS011;29414;44.798;20.366;2022-08-25T21:15:20;10.98;;;8.63;;
43793;SDS011;29414;44.798;20.366;2022-08-25T21:19:23;17.45;;;9.02;;
43793;SDS011;29414;44.798;20.366;2022-08-25T21:23:23;15.45;;;10.35;;
43793;SDS011;29414;44.798;20.366;2022-08-25T21:27:23;13.30;;;9.73;;
43793;SDS011;29414;44.798;20.366;2022-08-25T21:31:24;14.68;;;9.90;;
43793;SDS011;29414;44.798;20.366;2022-08-25T21:35:25;14.45;;;9.77;;
43793;SDS011;29414;44.798;20.366;2022-08-25T21:39:28;16.77;;;11.07;;
43793;SDS011;29414;44.798;20.366;2022-08-25T21:43:30;11.82;;;10.00;;
43793;SDS011;29414;44.798;20.366;2022-08-25T21:47:30;15.10;;;10.80;;
43793;SDS011;29414;44.798;20.366;2022-08-25T21:51:32;24.15;;;19.85;;
43793;SDS011;29414;44.798;20.366;2022-08-25T21:55:39;23.42;;;21.13;;
43793;SDS011;29414;44.798;20.366;2022-08-25T21:59:39;16.13;;;12.18;;
43793;SDS011;29414;44.798;20.366;2022-08-25T22:03:40;17.40;;;12.82;;
43793;SDS011;29414;44.798;20.366;2022-08-25T22:07:41;13.68;;;11.05;;
43793;SDS011;29414;44.798;20.366;2022-08-25T22:11:41;12.15;;;9.25;;
43793;SDS011;29414;44.798;20.366;2022-08-25T22:15:42;12.57;;;10.63;;
43793;SDS011;29414;44.798;20.366;2022-08-25T22:19:42;16.65;;;10.88;;
43793;SDS011;29414;44.798;20.366;2022-08-25T22:23:42;14.30;;;11.43;;
43793;SDS011;29414;44.798;20.366;2022-08-25T22:27:42;12.50;;;11.23;;
43793;SDS011;29414;44.798;20.366;2022-08-25T22:31:43;16.83;;;10.77;;
43793;SDS011;29414;44.798;20.366;2022-08-25T22:35:43;11.77;;;10.40;;
43793;SDS011;29414;44.798;20.366;2022-08-25T22:39:44;11.82;;;10.63;;
43793;SDS011;29414;44.798;20.366;2022-08-25T22:43:45;16.50;;;12.05;;
43793;SDS011;29414;44.798;20.366;2022-08-25T22:47:46;16.00;;;11.60;;
43793;SDS011;29414;44.798;20.366;2022-08-25T22:51:46;15.63;;;11.20;;
43793;SDS011;29414;44.798;20.366;2022-08-25T22:55:46;16.52;;;13.65;;
43793;SDS011;29414;44.798;20.366;2022-08-25T22:59:47;18.73;;;13.65;;
43793;SDS011;29414;44.798;20.366;2022-08-25T23:03:47;15.98;;;13.38;;
43793;SDS011;29414;44.798;20.366;2022-08-25T23:07:47;17.80;;;13.70;;
43793;SDS011;29414;44.798;20.366;2022-08-25T23:11:49;18.45;;;12.68;;
43793;SDS011;29414;44.798;20.366;2022-08-25T23:15:49;18.55;;;14.35;;
43793;SDS011;29414;44.798;20.366;2022-08-25T23:19:50;14.55;;;13.05;;
43793;SDS011;29414;44.798;20.366;2022-08-25T23:23:51;16.70;;;13.02;;
43793;SDS011;29414;44.798;20.366;2022-08-25T23:27:51;13.88;;;12.45;;
43793;SDS011;29414;44.798;20.366;2022-08-25T23:31:52;15.23;;;11.88;;
43793;SDS011;29414;44.798;20.366;2022-08-25T23:35:59;11.85;;;10.70;;
43793;SDS011;29414;44.798;20.366;2022-08-25T23:40:00;12.73;;;11.23;;
43793;SDS011;29414;44.798;20.366;2022-08-25T23:44:00;20.90;;;13.00;;
43793;SDS011;29414;44.798;20.366;2022-08-25T23:48:00;18.52;;;14.32;;
43793;SDS011;29414;44.798;20.366;2022-08-25T23:52:01;15.75;;;11.27;;
43793;SDS011;29414;44.798;20.366;2022-08-25T23:56:02;14.50;;;10.93;;
